• Join FlightAware (Why Join?)
  • Login
  • US Flag 
05:16AM EDT


 

Airport Tracker/Info


-or-


 

Live Flight TrackerFlight Track Log ✈ CTL18 ✈ 24-Apr-2013 ✈ KPTK - KMBS

Flight Track Log - Related Links

Times and Time Zones

All times are in EDT time to prevent confusion due to time zone crossing. See the CTL18 flight status page for this flight to view local times or setup timezone preferences in your user account.

Time Position Orientation Groundspeed Altitude Reporting Facility
EDT Latitude Longitude Course Direction KTS MPH feet Rate Location/Type
06:55PM 42.6639 -83.4433 267° West 107 123 1,600  Level FAA TRACON SMA TRACON (SMA)
06:55PM 42.6633 -83.4558 267° West 109 125 2,000 1,260 Climbing FAA TRACON SMA TRACON (SMA)
06:55PM 42.6631 -83.4719 269° West 110 127 2,500 1,140 Climbing FAA TRACON SMA TRACON (SMA)
06:56PM 42.6711 -83.4806 322° Northwest 109 125 2,800 900 Climbing FAA TRACON SMA TRACON (SMA)
06:56PM 42.6814 -83.4842 346° North 133 153 3,100 420 Climbing FAA TRACON SMA TRACON (SMA)
06:56PM 42.6964 -83.4872 351° North 151 174 3,100 -180 Level FAA TRACON SMA TRACON (SMA)
06:57PM 42.7094 -83.4894 353° North 156 180 3,000 -180 Descending FAA TRACON SMA TRACON (SMA)
06:57PM 42.7231 -83.4919 352° North 158 182 3,000  Level FAA TRACON SMA TRACON (SMA)
06:57PM 42.7394 -83.4956 351° North 156 180 3,000  Level FAA TRACON SMA TRACON (SMA)
06:58PM 42.7497 -83.5033 331° Northwest 156 180 3,000  Level FAA TRACON SMA TRACON (SMA)
06:58PM 42.7625 -83.5125 332° Northwest 155 178 3,000  Level FAA TRACON SMA TRACON (SMA)
06:58PM 42.7767 -83.5236 330° Northwest 151 174 3,000  Level FAA TRACON SMA TRACON (SMA)
06:59PM 42.7881 -83.5325 330° Northwest 151 174 3,000  Level FAA TRACON SMA TRACON (SMA)
06:59PM 42.7989 -83.5408 331° Northwest 150 173 3,000  Level FAA TRACON SMA TRACON (SMA)
06:59PM 42.8128 -83.5511 332° Northwest 149 171 3,000  Level FAA TRACON SMA TRACON (SMA)
07:00PM 42.8236 -83.5597 330° Northwest 148 170 3,000  Level FAA TRACON SMA TRACON (SMA)
07:00PM 42.8353 -83.5669 336° Northwest 147 169 3,000  Level FAA TRACON SMA TRACON (SMA)
07:00PM 42.8492 -83.5778 330° Northwest 148 170 3,000  Level FAA TRACON SMA TRACON (SMA)
07:01PM 42.8589 -83.5856 330° Northwest 150 173 3,000  Level FAA TRACON SMA TRACON (SMA)
07:01PM 42.8714 -83.5950 331° Northwest 149 171 3,000  Level FAA TRACON SMA TRACON (SMA)
07:01PM 42.8856 -83.6058 331° Northwest 150 173 3,000  Level FAA TRACON SMA TRACON (SMA)
07:02PM 42.8958 -83.6142 329° Northwest 150 173 3,000  Level FAA TRACON SMA TRACON (SMA)
07:02PM 42.9086 -83.6228 334° Northwest 151 174 3,000 120 Level FAA TRACON SMA TRACON (SMA)
07:02PM 42.9228 -83.6331 332° Northwest 151 174 3,100  Climbing FAA TRACON SMA TRACON (SMA)
07:03PM 42.9325 -83.6414 328° Northwest 151 174 3,000 -180 Descending FAA TRACON SMA TRACON (SMA)
07:03PM 42.9453 -83.6500 334° Northwest 150 173 3,000  Level FAA TRACON SMA TRACON (SMA)
07:03PM 42.9594 -83.6600 333° Northwest 149 171 3,000  Level FAA TRACON SMA TRACON (SMA)
07:04PM 42.9689 -83.6689 325° Northwest 149 171 3,000  Level FAA TRACON SMA TRACON (SMA)
07:04PM 42.9819 -83.6761 338° Northwest 148 170 3,000 120 Level FAA TRACON SMA TRACON (SMA)
07:04PM 42.9958 -83.6864 332° Northwest 148 170 3,100  Climbing FAA TRACON SMA TRACON (SMA)
07:05PM 43.0075 -83.6939 335° Northwest 148 170 3,000 60 Descending FAA TRACON SMA TRACON (SMA)
07:05PM 43.0325 -83.7128 331° Northwest 148 170 3,200  Climbing FAA TRACON SMA TRACON (SMA)
07:06PM 43.0436 -83.7206 333° Northwest 148 170 3,000 -300 Descending FAA TRACON SMA TRACON (SMA)
07:06PM 43.0522 -83.7281 328° Northwest 150 173 3,000  Level FAA TRACON SMA TRACON (SMA)
07:06PM 43.0522 -83.7281 56° Northeast 150 173 3,000  Level FAA TRACON SMA TRACON (SMA)
07:08PM 43.0992 -83.7536 338° Northwest  Level FlightAware Approximate
07:15PM 43.4064 -83.9396 324° Northwest  Level FlightAware Approximate
07:16PM 43.4459 -83.9792 324° Northwest  Level FlightAware Approximate
07:17PM 43.4855 -84.0188 324° Northwest  Level FlightAware Approximate
07:18PM 43.5167 -84.0667 305° West  Level FlightAware Approximate
07:19PM 43.5329 -84.0796 305° West  Level Estimated
07:20PM 43.5329 -84.0796 305° West  Level Estimated
07:21PM 43.5329 -84.0796 305° West  Level Estimated
07:22PM 43.5329 -84.0796 305° West  Level Estimated
07:23PM 43.5329 -84.0796 305° West  Level Estimated
07:24PM 43.5329 -84.0796 305° West  Level Estimated
07:25PM 43.5329 -84.0796 305° West  Level Estimated
07:26PM 43.5329 -84.0796 305° West  Level Estimated
07:27PM 43.5329 -84.0796 305° West  Level Estimated